sensor_id;sensor_type;location;lat;lon;timestamp;P1;P2;P0
43280;PMS5003;62175;49.416;8.690;2022-12-07T00:02:00;15;15;
43280;PMS5003;62175;49.416;8.690;2022-12-07T00:04:27;13;13;
43280;PMS5003;62175;49.416;8.690;2022-12-07T00:06:54;17;17;
43280;PMS5003;62175;49.416;8.690;2022-12-07T00:09:22;16;15;
43280;PMS5003;62175;49.416;8.690;2022-12-07T00:11:49;17;14;
43280;PMS5003;62175;49.416;8.690;2022-12-07T00:14:17;17;13;
43280;PMS5003;62175;49.416;8.690;2022-12-07T00:16:48;17;14;
43280;PMS5003;62175;49.416;8.690;2022-12-07T00:19:16;18;16;
43280;PMS5003;62175;49.416;8.690;2022-12-07T00:21:43;18;17;
43280;PMS5003;62175;49.416;8.690;2022-12-07T00:24:10;15;13;
43280;PMS5003;62175;49.416;8.690;2022-12-07T00:26:39;14;13;
43280;PMS5003;62175;49.416;8.690;2022-12-07T00:29:09;14;13;
43280;PMS5003;62175;49.416;8.690;2022-12-07T00:31:41;14;14;
43280;PMS5003;62175;49.416;8.690;2022-12-07T00:34:11;20;17;
43280;PMS5003;62175;49.416;8.690;2022-12-07T00:36:40;13;13;
43280;PMS5003;62175;49.416;8.690;2022-12-07T00:39:08;19;16;
43280;PMS5003;62175;49.416;8.690;2022-12-07T00:41:35;17;16;
43280;PMS5003;62175;49.416;8.690;2022-12-07T00:44:03;18;16;
43280;PMS5003;62175;49.416;8.690;2022-12-07T00:46:31;15;14;
43280;PMS5003;62175;49.416;8.690;2022-12-07T00:48:59;17;15;
43280;PMS5003;62175;49.416;8.690;2022-12-07T00:51:26;20;17;
43280;PMS5003;62175;49.416;8.690;2022-12-07T00:53:54;21;19;
43280;PMS5003;62175;49.416;8.690;2022-12-07T00:56:23;16;15;
43280;PMS5003;62175;49.416;8.690;2022-12-07T00:58:52;17;15;
43280;PMS5003;62175;49.416;8.690;2022-12-07T01:01:21;19;18;
43280;PMS5003;62175;49.416;8.690;2022-12-07T01:03:49;14;13;
43280;PMS5003;62175;49.416;8.690;2022-12-07T01:06:17;19;17;
43280;PMS5003;62175;49.416;8.690;2022-12-07T01:08:46;18;16;
43280;PMS5003;62175;49.416;8.690;2022-12-07T01:11:14;14;14;
43280;PMS5003;62175;49.416;8.690;2022-12-07T01:13:43;17;15;
43280;PMS5003;62175;49.416;8.690;2022-12-07T01:16:11;14;14;
43280;PMS5003;62175;49.416;8.690;2022-12-07T01:18:40;16;14;
43280;PMS5003;62175;49.416;8.690;2022-12-07T01:21:09;17;15;
43280;PMS5003;62175;49.416;8.690;2022-12-07T01:23:39;21;20;
43280;PMS5003;62175;49.416;8.690;2022-12-07T01:26:08;13;12;
43280;PMS5003;62175;49.416;8.690;2022-12-07T01:28:38;14;12;
43280;PMS5003;62175;49.416;8.690;2022-12-07T01:31:06;15;14;
43280;PMS5003;62175;49.416;8.690;2022-12-07T01:33:36;13;13;
43280;PMS5003;62175;49.416;8.690;2022-12-07T01:36:05;16;15;
43280;PMS5003;62175;49.416;8.690;2022-12-07T01:38:34;11;11;
43280;PMS5003;62175;49.416;8.690;2022-12-07T01:41:01;16;14;
43280;PMS5003;62175;49.416;8.690;2022-12-07T01:43:30;15;14;
43280;PMS5003;62175;49.416;8.690;2022-12-07T01:45:58;16;13;
43280;PMS5003;62175;49.416;8.690;2022-12-07T01:48:27;14;14;
43280;PMS5003;62175;49.416;8.690;2022-12-07T01:51:00;16;15;
43280;PMS5003;62175;49.416;8.690;2022-12-07T01:53:32;15;13;
43280;PMS5003;62175;49.416;8.690;2022-12-07T01:56:04;17;17;
43280;PMS5003;62175;49.416;8.690;2022-12-07T01:58:36;16;15;
43280;PMS5003;62175;49.416;8.690;2022-12-07T02:01:03;15;13;
43280;PMS5003;62175;49.416;8.690;2022-12-07T02:03:31;19;13;
43280;PMS5003;62175;49.416;8.690;2022-12-07T02:06:02;16;15;
43280;PMS5003;62175;49.416;8.690;2022-12-07T02:08:31;15;13;
43280;PMS5003;62175;49.416;8.690;2022-12-07T02:10:58;15;14;
43280;PMS5003;62175;49.416;8.690;2022-12-07T02:13:26;13;12;
43280;PMS5003;62175;49.416;8.690;2022-12-07T02:16:00;17;15;
43280;PMS5003;62175;49.416;8.690;2022-12-07T23:04:55;23;20;
43280;PMS5003;62175;49.416;8.690;2022-12-07T23:06:56;28;23;
43280;PMS5003;62175;49.416;8.690;2022-12-07T23:09:49;28;23;
43280;PMS5003;62175;49.416;8.690;2022-12-07T23:12:17;26;24;
43280;PMS5003;62175;49.416;8.690;2022-12-07T23:14:45;24;22;
43280;PMS5003;62175;49.416;8.690;2022-12-07T23:17:12;23;21;
43280;PMS5003;62175;49.416;8.690;2022-12-07T23:19:39;23;22;
43280;PMS5003;62175;49.416;8.690;2022-12-07T23:22:07;21;21;
43280;PMS5003;62175;49.416;8.690;2022-12-07T23:24:34;29;27;
43280;PMS5003;62175;49.416;8.690;2022-12-07T23:27:03;24;21;
43280;PMS5003;62175;49.416;8.690;2022-12-07T23:29:32;28;25;
43280;PMS5003;62175;49.416;8.690;2022-12-07T23:32:00;21;20;
43280;PMS5003;62175;49.416;8.690;2022-12-07T23:34:27;30;26;
43280;PMS5003;62175;49.416;8.690;2022-12-07T23:36:55;26;24;
43280;PMS5003;62175;49.416;8.690;2022-12-07T23:39:22;20;19;
43280;PMS5003;62175;49.416;8.690;2022-12-07T23:41:49;32;29;
43280;PMS5003;62175;49.416;8.690;2022-12-07T23:44:17;26;23;
43280;PMS5003;62175;49.416;8.690;2022-12-07T23:46:44;30;27;
43280;PMS5003;62175;49.416;8.690;2022-12-07T23:49:10;27;23;
43280;PMS5003;62175;49.416;8.690;2022-12-07T23:51:38;31;22;
43280;PMS5003;62175;49.416;8.690;2022-12-07T23:54:05;27;23;
43280;PMS5003;62175;49.416;8.690;2022-12-07T23:56:36;26;22;
